Victoria Beach, Canada
Current Conditions -  °F | °C
As of 11:00 AM on Saturday 20 Dec 2014 (Local Time) from CYWG Reporting Station
Freezing Drizzle Freezing Drizzle  
Wind Chill: 17°   Ceiling: 500
Heat Index: 27°   Visibility: 4mi
Dew Point: 25°   Wind: 9mph
Humidity: 93%   Direction: 170°S
Pressure: 29.99"   Gusts: NA
Location:  50.7°N, 96.53°W
Report Text: CYWG 201700Z 17008KT 4SM -FZDZ BR OVC005 M03/M04 A2999 RMK ST8 SLP170
Loading
Personal Weather Stations






























Interactive Weather Map New forecast layout! Learn more

10-Day Weather Forecast

Advertisements
Track Severe Weather on mobile